.
WxDataArchive / Data Records for 2014-10-26
2014-10-25 October 2014 2014-10-27

Data Records for Sunday, 26 October 2014

Time	Temp	Chill	HIndex	Humid	Dewpt	 Wind 	HiWind	WindDir	Rain 	Barom
-----	----	-----	------	-----	-----	------	------	-------	-----	-----
00:00	53.3	53.3	53.3	50	35.1	0	1	292	0.00	29.873 
00:05	53.2	53.2	53.2	51	35.5	0	1	292	0.00	29.873 
00:10	53.2	53.2	53.2	51	35.5	0	1	292	0.00	29.873 
00:15	53.1	53.1	53.1	52	35.9	0	1	292	0.00	29.874 
00:20	52.9	52.9	52.9	52	35.8	0	1	292	0.00	29.874 
00:25	52.8	52.8	52.8	52	35.7	0	1	292	0.00	29.874 
00:30	52.6	52.6	52.6	53	36.0	0	1	292	0.00	29.877 
00:35	52.5	52.5	52.5	53	35.9	0	0	---	0.00	29.877 
00:40	52.3	52.3	52.3	53	35.7	0	1	292	0.00	29.877 
00:45	52.2	52.2	52.2	53	35.6	0	1	292	0.00	29.881 
00:50	52.0	52.0	52.0	54	35.9	0	1	292	0.00	29.881 
00:55	52.0	52.0	52.0	54	35.9	0	1	292	0.00	29.881 
01:00	51.9	51.9	51.9	54	35.8	0	1	292	0.00	29.881 
01:05	51.7	51.7	51.7	55	36.1	0	1	292	0.00	29.881 
01:10	51.6	51.6	51.6	55	36.0	0	1	292	0.00	29.881 
01:15	51.4	51.4	51.4	55	35.8	0	1	292	0.00	29.881 
01:20	51.3	51.3	51.3	55	35.7	0	0	---	0.00	29.881 
01:25	51.1	51.1	51.1	56	36.0	0	1	292	0.00	29.881 
01:30	51.0	51.0	51.0	56	35.9	0	1	292	0.00	29.882 
01:35	50.8	50.8	50.8	56	35.7	0	0	---	0.00	29.882 
01:40	50.5	50.5	50.5	57	35.8	0	1	292	0.00	29.882 
01:45	50.4	50.4	50.4	57	35.7	0	1	292	0.00	29.882 
01:50	50.4	50.4	50.4	57	35.7	0	1	292	0.00	29.882 
01:55	50.2	50.2	50.2	57	35.6	0	1	292	0.00	29.882 
02:00	50.4	50.4	50.4	56	35.3	0	1	292	0.00	29.884 
02:05	50.5	50.5	50.5	56	35.4	0	1	292	0.00	29.884 
02:10	50.5	50.5	50.5	55	34.9	0	1	292	0.00	29.884 
02:15	50.5	50.5	50.5	54	34.5	0	1	292	0.00	29.887 
02:20	50.5	50.5	50.5	54	34.5	0	1	292	0.00	29.887 
02:25	50.5	50.5	50.5	54	34.5	0	1	292	0.00	29.887 
02:30	50.5	50.5	50.5	54	34.5	0	1	292	0.00	29.890 
02:35	50.4	50.4	50.4	54	34.4	0	1	292	0.00	29.890 
02:40	50.2	50.2	50.2	54	34.2	0	1	292	0.00	29.890 
02:45	49.9	49.9	49.9	55	34.4	0	0	---	0.00	29.894 
02:50	49.6	49.6	49.6	56	34.6	0	0	---	0.00	29.894 
02:55	49.2	49.2	49.2	56	34.2	0	0	---	0.00	29.894 
03:00	48.8	48.8	48.8	57	34.3	0	0	---	0.00	29.898 
03:05	48.3	48.3	48.3	58	34.2	0	0	---	0.00	29.898 
03:10	47.9	47.9	47.9	59	34.3	0	0	---	0.00	29.898 
03:15	47.4	47.4	47.4	60	34.2	0	0	---	0.00	29.903 
03:20	47.0	47.0	47.0	60	33.8	0	1	292	0.00	29.903 
03:25	46.8	46.8	46.8	60	33.7	0	0	---	0.00	29.903 
03:30	46.8	46.8	46.8	60	33.7	0	1	292	0.00	29.906 
03:35	46.8	46.8	46.8	60	33.7	0	1	292	0.00	29.906 
03:40	47.0	47.0	47.0	60	33.8	0	0	---	0.00	29.906 
03:45	46.8	46.8	46.8	60	33.7	0	1	292	0.00	29.907 
03:50	46.8	46.8	46.8	60	33.7	0	1	292	0.00	29.907 
03:55	47.0	47.0	47.0	60	33.8	0	1	292	0.00	29.907 
04:00	47.0	47.0	47.0	59	33.4	0	1	292	0.00	29.903 
04:05	47.0	47.0	47.0	59	33.4	0	1	292	0.00	29.903 
04:10	47.0	47.0	47.0	59	33.4	0	1	292	0.00	29.903 
04:15	47.1	47.1	47.1	59	33.5	0	1	292	0.00	29.901 
04:20	47.4	47.4	47.4	58	33.4	0	1	292	0.00	29.901 
04:25	47.6	47.6	47.6	58	33.6	0	1	292	0.00	29.901 
04:30	47.4	47.4	47.4	58	33.4	0	1	292	0.00	29.904 
04:35	47.3	47.3	47.3	58	33.3	0	1	292	0.00	29.904 
04:40	47.0	47.0	47.0	59	33.4	0	1	292	0.00	29.904 
04:45	46.7	46.7	46.7	59	33.1	0	0	---	0.00	29.903 
04:50	46.4	46.4	46.4	60	33.3	0	0	---	0.00	29.903 
04:55	45.8	45.8	45.8	61	33.1	0	1	292	0.00	29.903 
05:00	45.5	45.5	45.5	62	33.2	0	0	---	0.00	29.908 
05:05	45.2	45.2	45.2	62	33.0	0	1	292	0.00	29.908 
05:10	45.1	45.1	45.1	63	33.3	0	1	292	0.00	29.908 
05:15	44.9	44.9	44.9	63	33.1	0	1	292	0.00	29.915 
05:20	44.9	44.9	44.9	63	33.1	0	1	292	0.00	29.915 
05:25	44.8	44.8	44.8	63	33.0	0	1	292	0.00	29.915 
05:30	44.8	44.8	44.8	63	33.0	0	1	292	0.00	29.917 
05:35	44.6	44.6	44.6	64	33.2	0	1	292	0.00	29.917 
05:40	44.6	44.6	44.6	63	32.8	0	1	292	0.00	29.917 
05:45	44.6	44.6	44.6	63	32.8	0	1	292	0.00	29.919 
05:50	44.6	44.6	44.6	63	32.8	0	1	292	0.00	29.919 
05:55	44.6	44.6	44.6	64	33.2	0	0	---	0.00	29.919 
06:00	44.2	44.2	44.2	64	32.8	0	0	---	0.00	29.930 
06:05	44.1	44.1	44.1	65	33.1	0	1	292	0.00	29.930 
06:10	43.9	43.9	43.9	65	32.9	0	0	---	0.00	29.930 
06:15	43.8	43.8	43.8	66	33.2	0	1	292	0.00	29.937 
06:20	43.5	43.5	43.5	66	32.9	0	0	---	0.00	29.937 
06:25	43.3	43.3	43.3	67	33.1	0	1	292	0.00	29.937 
06:30	43.2	43.2	43.2	67	33.0	0	0	---	0.00	29.939 
06:35	43.2	43.2	43.2	68	33.4	0	0	---	0.00	29.939 
06:40	43.1	43.1	43.1	68	33.3	0	0	---	0.00	29.939 
06:45	42.9	42.9	42.9	69	33.4	0	0	---	0.00	29.937 
06:50	42.9	42.9	42.9	69	33.4	0	0	---	0.00	29.937 
06:55	42.8	42.8	42.8	69	33.3	0	0	---	0.00	29.937 
07:00	42.8	42.8	42.8	69	33.3	0	0	---	0.00	29.934 
07:05	42.6	42.6	42.6	70	33.5	0	0	---	0.00	29.934 
07:10	42.3	42.3	42.3	70	33.2	0	0	---	0.00	29.934 
07:15	42.2	42.2	42.2	71	33.5	0	0	---	0.00	29.945 
07:20	41.9	41.9	41.9	71	33.2	0	0	---	0.00	29.945 
07:25	41.6	41.6	41.6	72	33.3	0	0	---	0.00	29.945 
07:30	41.5	41.5	41.5	73	33.5	0	0	---	0.00	29.946 
07:35	41.2	41.2	41.2	73	33.2	0	0	---	0.00	29.946 
07:40	40.9	40.9	40.9	74	33.3	0	0	---	0.00	29.946 
07:45	40.6	40.6	40.6	74	33.0	0	0	---	0.00	29.951 
07:50	40.3	40.3	40.3	76	33.3	0	0	---	0.00	29.951 
07:55	40.1	40.1	40.1	76	33.2	0	0	---	0.00	29.951 
08:00	39.6	39.6	39.6	77	33.0	0	0	---	0.00	29.962 
08:05	39.5	39.5	39.5	77	32.9	0	0	---	0.00	29.962 
08:10	39.2	39.2	39.2	78	32.9	0	0	---	0.00	29.962 
08:15	38.9	38.9	38.9	79	33.0	0	0	---	0.00	29.966 
08:20	38.8	38.8	38.8	79	32.9	0	0	---	0.00	29.966 
08:25	38.6	38.6	38.6	80	33.0	0	0	---	0.00	29.966 
08:30	38.5	38.5	38.5	81	33.2	0	0	---	0.00	29.969 
08:35	38.6	38.6	38.6	82	33.6	0	0	---	0.00	29.969 
08:40	39.2	39.2	39.2	83	34.5	0	0	---	0.00	29.969 
08:45	39.8	39.8	39.8	82	34.8	0	0	---	0.00	29.978 
08:50	40.1	40.1	40.1	81	34.7	0	0	---	0.00	29.978 
08:55	40.5	40.5	40.5	81	35.1	0	0	---	0.00	29.978 
09:00	41.1	41.1	41.1	81	35.7	0	0	---	0.00	29.980 
09:05	41.3	41.3	41.3	81	35.9	0	0	---	0.00	29.980 
09:10	42.1	42.1	42.1	80	36.4	0	0	---	0.00	29.980 
09:15	42.9	42.9	42.9	79	36.8	0	0	---	0.00	29.992 
09:20	43.5	43.5	43.5	77	36.8	0	0	---	0.00	29.992 
09:25	44.2	44.2	44.2	76	37.1	0	1	292	0.00	29.992 
09:30	44.9	44.9	44.9	75	37.5	0	1	292	0.00	29.993 
09:35	45.7	45.7	45.7	73	37.5	0	1	292	0.00	29.993 
09:40	46.4	46.4	46.4	72	37.9	0	2	292	0.00	29.993 
09:45	47.1	47.1	47.1	69	37.5	0	2	292	0.00	29.991 
09:50	47.9	47.9	47.9	68	37.9	0	3	292	0.00	29.991 
09:55	48.6	48.6	48.6	67	38.1	0	1	292	0.00	29.991 
10:00	49.2	49.2	49.2	65	37.9	1	3	292	0.00	29.991 
10:05	49.8	49.8	49.8	65	38.5	1	2	292	0.00	29.991 
10:10	50.2	50.2	50.2	64	38.5	1	2	292	0.00	29.991 
10:15	50.7	50.7	50.7	62	38.2	1	3	292	0.00	29.987 
10:20	51.3	51.3	51.3	61	38.3	1	2	292	0.00	29.987 
10:25	51.9	51.9	51.9	58	37.6	1	3	292	0.00	29.987 
10:30	52.2	52.2	52.2	57	37.4	1	3	292	0.00	29.986 
10:35	52.6	52.6	52.6	55	36.9	1	3	292	0.00	29.986 
10:40	53.2	53.2	53.2	54	37.0	1	2	292	0.00	29.986 
10:45	53.5	53.5	53.5	52	36.3	1	2	292	0.00	29.984 
10:50	53.9	53.9	53.9	51	36.2	1	2	292	0.00	29.984 
10:55	54.2	54.2	54.2	50	36.0	1	2	292	0.00	29.984 
11:00	54.5	54.5	54.5	50	36.2	1	3	292	0.00	29.982 
11:05	54.8	54.8	54.8	49	36.0	0	2	292	0.00	29.982 
11:10	55.0	55.0	55.0	48	35.7	1	3	292	0.00	29.982 
11:15	55.1	55.1	55.1	46	34.7	1	6	315	0.00	29.985 
11:20	55.1	55.1	55.1	46	34.7	1	3	338	0.00	29.985 
11:25	55.3	55.3	55.3	45	34.3	1	3	338	0.00	29.985 
11:30	55.7	55.7	55.7	44	34.1	1	3	338	0.00	29.981 
11:35	56.0	56.0	56.0	45	35.0	1	2	292	0.00	29.981 
11:40	56.3	56.3	56.3	42	33.5	1	4	292	0.00	29.981 
11:45	56.6	56.6	56.6	43	34.4	1	4	292	0.00	29.977 
11:50	56.7	56.7	56.7	41	33.3	2	4	315	0.00	29.977 
11:55	56.7	56.7	56.7	43	34.5	1	4	270	0.00	29.977 
12:00	56.9	56.9	56.9	43	34.6	1	4	292	0.00	29.974 
12:05	57.2	57.2	57.2	44	35.5	1	3	315	0.00	29.974 
12:10	57.5	57.5	57.5	43	35.2	2	5	270	0.00	29.974 
12:15	57.6	57.6	57.6	40	33.5	1	5	270	0.00	29.970 
12:20	57.8	57.8	57.8	41	34.3	1	3	338	0.00	29.970 
12:25	58.1	58.1	58.1	39	33.3	2	4	270	0.00	29.970 
12:30	58.3	58.3	58.3	36	31.5	1	4	270	0.00	29.968 
12:35	58.4	58.4	58.4	39	33.5	1	3	270	0.00	29.968 
12:40	58.6	58.6	58.6	36	31.7	2	3	270	0.00	29.968 
12:45	58.7	58.7	58.7	37	32.5	1	3	270	0.00	29.965 
12:50	59.0	59.0	59.0	37	32.8	1	4	270	0.00	29.965 
12:55	59.0	59.0	59.0	36	32.1	1	4	292	0.00	29.965 
13:00	59.3	59.3	59.3	35	31.7	1	4	292	0.00	29.959 
13:05	59.6	59.6	59.6	38	34.0	1	4	292	0.00	29.959 
13:10	59.9	59.9	59.9	34	31.5	1	4	292	0.00	29.959 
13:15	59.8	59.8	59.8	32	29.9	2	4	292	0.00	29.952 
13:20	59.9	59.9	59.9	34	31.5	2	5	292	0.00	29.952 
13:25	59.9	59.9	59.9	33	30.7	1	4	292	0.00	29.952 
13:30	60.1	60.1	60.1	32	30.1	1	4	292	0.00	29.947 
13:35	60.4	60.4	60.4	32	30.4	2	4	292	0.00	29.947 
13:40	60.5	60.5	60.5	34	32.0	1	3	292	0.00	29.947 
13:45	60.7	60.7	60.7	34	32.2	1	4	292	0.00	29.938 
13:50	60.7	60.7	60.7	32	30.7	2	4	292	0.00	29.938 
13:55	60.7	60.7	60.7	33	31.4	1	4	292	0.00	29.938 
14:00	60.9	60.9	60.9	33	31.6	1	3	292	0.00	29.934 
14:05	61.2	61.2	61.2	33	31.9	1	4	292	0.00	29.934 
14:10	61.2	61.2	61.2	31	30.3	2	6	292	0.00	29.934 
14:15	61.2	61.2	61.2	30	29.5	2	5	292	0.00	29.932 
14:20	61.2	61.2	61.2	30	29.5	2	5	270	0.00	29.932 
14:25	61.5	61.5	61.5	30	29.8	1	4	270	0.00	29.932 
14:30	61.6	61.6	61.6	28	28.2	2	5	270	0.00	29.931 
14:35	61.6	61.6	61.6	28	28.2	1	4	315	0.00	29.931 
14:40	62.0	62.0	62.0	29	29.4	1	4	270	0.00	29.931 
14:45	62.0	62.0	62.0	28	28.5	1	4	292	0.00	29.924 
14:50	62.1	62.1	62.1	28	28.6	1	4	292	0.00	29.924 
14:55	62.1	62.1	62.1	27	27.7	1	4	292	0.00	29.924 
15:00	62.1	62.1	62.1	27	27.7	2	7	315	0.00	29.920 
15:05	62.3	62.3	62.3	28	28.8	1	3	292	0.00	29.920 
15:10	62.4	62.4	62.4	28	28.9	1	3	292	0.00	29.920 
15:15	62.6	62.6	62.6	28	29.0	2	5	292	0.00	29.918 
15:20	62.6	62.6	62.6	28	29.0	1	3	292	0.00	29.918 
15:25	62.7	62.7	62.7	29	30.0	1	4	270	0.00	29.918 
15:30	62.7	62.7	62.7	28	29.1	2	4	292	0.00	29.917 
15:35	62.7	62.7	62.7	28	29.1	1	4	315	0.00	29.917 
15:40	62.7	62.7	62.7	28	29.1	1	6	270	0.00	29.917 
15:45	62.9	62.9	62.9	28	29.3	1	4	270	0.00	29.913 
15:50	63.1	63.1	63.1	27	28.6	1	4	292	0.00	29.913 
15:55	63.2	63.2	63.2	27	28.7	1	4	338	0.00	29.913 
16:00	63.4	63.4	63.4	28	29.7	1	3	338	0.00	29.914 
16:05	63.4	63.4	63.4	28	29.7	1	3	338	0.00	29.914 
16:10	63.2	63.2	63.2	28	29.6	1	3	292	0.00	29.914 
16:15	63.1	63.1	63.1	28	29.5	1	5	292	0.00	29.913 
16:20	63.2	63.2	63.2	27	28.7	1	4	292	0.00	29.913 
16:25	63.1	63.1	63.1	28	29.5	1	4	292	0.00	29.913 
16:30	62.9	62.9	62.9	27	28.4	1	5	315	0.00	29.916 
16:35	62.9	62.9	62.9	27	28.4	2	4	270	0.00	29.916 
16:40	63.1	63.1	63.1	28	29.5	0	3	315	0.00	29.916 
16:45	63.1	63.1	63.1	27	28.6	1	3	315	0.00	29.919 
16:50	63.1	63.1	63.1	28	29.5	1	3	315	0.00	29.919 
16:55	63.1	63.1	63.1	27	28.6	1	4	270	0.00	29.919 
17:00	62.9	62.9	62.9	27	28.4	1	3	315	0.00	29.921 
17:05	62.9	62.9	62.9	27	28.4	1	2	315	0.00	29.921 
17:10	62.9	62.9	62.9	28	29.3	0	2	315	0.00	29.921 
17:15	62.9	62.9	62.9	27	28.4	1	3	315	0.00	29.920 
17:20	62.9	62.9	62.9	27	28.4	1	3	292	0.00	29.920 
17:25	62.9	62.9	62.9	27	28.4	1	3	315	0.00	29.920 
17:30	62.7	62.7	62.7	27	28.2	1	3	292	0.00	29.920 
17:35	62.6	62.6	62.6	28	29.0	1	3	315	0.00	29.920 
17:40	62.6	62.6	62.6	27	28.2	0	3	315	0.00	29.920 
17:45	62.4	62.4	62.4	28	28.9	0	3	315	0.00	29.919 
17:50	62.4	62.4	62.4	30	30.6	0	2	315	0.00	29.919 
17:55	62.1	62.1	62.1	31	31.1	0	1	315	0.00	29.919 
18:00	61.8	61.8	61.8	30	30.0	0	1	315	0.00	29.914 
18:05	61.5	61.5	61.5	31	30.6	0	1	315	0.00	29.914 
18:10	61.2	61.2	61.2	31	30.3	0	1	315	0.00	29.914 
18:15	60.9	60.9	60.9	31	30.1	0	1	315	0.00	29.914 
18:20	60.5	60.5	60.5	32	30.5	0	1	315	0.00	29.914 
18:25	60.2	60.2	60.2	33	31.0	0	0	---	0.00	29.914 
18:30	59.8	59.8	59.8	34	31.4	0	0	---	0.00	29.915 
18:35	59.3	59.3	59.3	35	31.7	0	0	---	0.00	29.915 
18:40	58.7	58.7	58.7	35	31.1	0	0	---	0.00	29.915 
18:45	58.3	58.3	58.3	37	32.1	0	0	---	0.00	29.918 
18:50	57.6	57.6	57.6	37	31.5	0	0	---	0.00	29.918 
18:55	57.0	57.0	57.0	39	32.3	0	0	---	0.00	29.918 
19:00	56.5	56.5	56.5	39	31.8	0	0	---	0.00	29.922 
19:05	56.0	56.0	56.0	43	33.8	0	0	---	0.00	29.922 
19:10	55.4	55.4	55.4	43	33.3	0	0	---	0.00	29.922 
19:15	54.8	54.8	54.8	45	33.9	0	0	---	0.00	29.930 
19:20	54.1	54.1	54.1	47	34.3	0	0	---	0.00	29.930 
19:25	53.3	53.3	53.3	46	33.1	0	0	---	0.00	29.930 
19:30	52.6	52.6	52.6	48	33.5	0	0	---	0.00	29.934 
19:35	52.0	52.0	52.0	50	33.9	0	0	---	0.00	29.934 
19:40	51.6	51.6	51.6	51	34.1	0	0	---	0.00	29.934 
19:45	51.1	51.1	51.1	53	34.6	0	0	---	0.00	29.936 
19:50	50.7	50.7	50.7	52	33.7	0	0	---	0.00	29.936 
19:55	50.4	50.4	50.4	54	34.4	0	0	---	0.00	29.936 
20:00	49.9	49.9	49.9	54	33.9	0	0	---	0.00	29.937 
20:05	49.4	49.4	49.4	54	33.5	0	0	---	0.00	29.937 
20:10	49.1	49.1	49.1	56	34.1	0	0	---	0.00	29.937 
20:15	48.6	48.6	48.6	58	34.5	0	0	---	0.00	29.943 
20:20	48.2	48.2	48.2	58	34.1	0	0	---	0.00	29.943 
20:25	47.7	47.7	47.7	59	34.1	0	0	---	0.00	29.943 
20:30	47.6	47.6	47.6	60	34.4	0	0	---	0.00	29.946 
20:35	47.3	47.3	47.3	61	34.5	0	0	---	0.00	29.946 
20:40	46.8	46.8	46.8	62	34.5	0	0	---	0.00	29.946 
20:45	46.5	46.5	46.5	63	34.6	0	0	---	0.00	29.941 
20:50	46.4	46.4	46.4	63	34.5	0	0	---	0.00	29.941 
20:55	46.1	46.1	46.1	64	34.6	0	0	---	0.00	29.941 
21:00	46.0	46.0	46.0	65	34.9	0	0	---	0.00	29.943 
21:05	45.7	45.7	45.7	66	35.0	0	0	---	0.00	29.943 
21:10	45.5	45.5	45.5	67	35.2	0	0	---	0.00	29.943 
21:15	45.4	45.4	45.4	68	35.5	0	0	---	0.00	29.940 
21:20	45.1	45.1	45.1	68	35.2	0	0	---	0.00	29.940 
21:25	44.9	44.9	44.9	69	35.4	0	0	---	0.00	29.940 
21:30	44.6	44.6	44.6	69	35.1	0	0	---	0.00	29.944 
21:35	44.5	44.5	44.5	69	35.0	0	0	---	0.00	29.944 
21:40	44.3	44.3	44.3	70	35.1	0	0	---	0.00	29.944 
21:45	44.1	44.1	44.1	71	35.3	0	0	---	0.00	29.945 
21:50	43.9	43.9	43.9	71	35.1	0	0	---	0.00	29.945 
21:55	43.8	43.8	43.8	73	35.7	0	0	---	0.00	29.945 
22:00	43.6	43.6	43.6	73	35.5	0	0	---	0.00	29.944 
22:05	43.6	43.6	43.6	73	35.5	0	0	---	0.00	29.944 
22:10	43.5	43.5	43.5	74	35.8	0	0	---	0.00	29.944 
22:15	43.3	43.3	43.3	74	35.6	0	0	---	0.00	29.938 
22:20	43.1	43.1	43.1	75	35.7	0	0	---	0.00	29.938 
22:25	42.9	42.9	42.9	75	35.5	0	0	---	0.00	29.938 
22:30	42.8	42.8	42.8	76	35.8	0	0	---	0.00	29.937 
22:35	42.8	42.8	42.8	76	35.8	0	0	---	0.00	29.937 
22:40	42.6	42.6	42.6	77	35.9	0	0	---	0.00	29.937 
22:45	42.5	42.5	42.5	78	36.1	0	0	---	0.00	29.943 
22:50	42.3	42.3	42.3	79	36.3	0	0	---	0.00	29.943 
22:55	42.3	42.3	42.3	79	36.3	0	0	---	0.00	29.943 
23:00	42.2	42.2	42.2	79	36.2	0	0	---	0.00	29.937 
23:05	42.1	42.1	42.1	80	36.4	0	0	---	0.00	29.937 
23:10	41.9	41.9	41.9	80	36.2	0	0	---	0.00	29.937 
23:15	41.9	41.9	41.9	80	36.2	0	0	---	0.00	29.930 
23:20	41.8	41.8	41.8	80	36.1	0	0	---	0.00	29.930 
23:25	41.8	41.8	41.8	80	36.1	0	0	---	0.00	29.930 
23:30	41.6	41.6	41.6	80	35.9	0	0	---	0.00	29.930 
23:35	41.6	41.6	41.6	81	36.2	0	0	---	0.00	29.930 
23:40	41.6	41.6	41.6	81	36.2	0	0	---	0.00	29.930 
23:45	41.6	41.6	41.6	81	36.2	0	0	---	0.00	29.930 
23:50	41.8	41.8	41.8	80	36.1	0	0	---	0.00	29.930 
23:55	41.8	41.8	41.8	80	36.1	0	0	---	0.00	29.930 

CoCoRaHS
IN-AL-39
A2 Web Hosting
Creative Commons License
GoDaddy
search engine by freefind advanced

loaded 2018-11-17 18:50:37 • last modified 2010-11-18 10:43:29
Privacy PolicyDisclaimer
• wx.awcolley.com is powered by PmWiki v.2002016 •
• all content (unless otherwise noted) © 2018 A W Colley